createdAt,value
2018-05-26T06:39:53.576Z,52.8
2018-05-26T06:40:43.079Z,49.2
2018-05-26T06:41:33.433Z,46.7
2018-05-26T06:42:23.779Z,45.3
2018-05-26T06:43:13.854Z,44.4
2018-05-26T06:44:03.898Z,43.9
2018-05-26T06:44:53.985Z,43.7
2018-05-26T06:45:44.031Z,43.7
2018-05-26T06:46:34.084Z,43.9
2018-05-26T06:47:23.597Z,44.3
2018-05-26T06:48:14.219Z,44.8
2018-05-26T06:49:04.025Z,45.5
2018-05-26T06:49:53.775Z,46.1
2018-05-26T06:50:44.554Z,46.8
2018-05-26T06:51:34.478Z,47.6
2018-05-26T06:52:24.536Z,48.3
2018-05-26T06:53:14.611Z,49
2018-05-26T06:54:04.191Z,49.8
2018-05-26T06:54:54.743Z,50.5
2018-05-26T06:55:44.524Z,51.2
2018-05-26T06:57:24.940Z,52.6
2018-05-26T06:58:14.739Z,53.3
2018-05-26T06:59:05.059Z,53.9
2018-05-26T06:59:55.120Z,54.6
2018-05-26T07:00:45.186Z,55.8
2018-05-26T07:01:35.251Z,56.6
2018-05-26T07:02:25.328Z,55.6
2018-05-26T07:03:15.383Z,54.2
2018-05-26T07:04:05.477Z,52.3
2018-05-26T07:04:55.246Z,50.8
2018-05-26T07:05:45.562Z,49.9
2018-05-26T07:06:35.640Z,49.4
2018-05-26T07:07:25.410Z,49.4
2018-05-26T07:08:15.776Z,49.8
2018-05-26T07:09:05.849Z,50.2
2018-05-26T07:09:55.917Z,50.7
2018-05-26T07:10:45.695Z,51.3
2018-05-26T07:12:25.831Z,52.7
2018-05-26T07:13:15.865Z,53.4
2018-05-26T07:14:05.675Z,54.2
2018-05-26T07:14:56.292Z,55.1
2018-05-26T07:15:46.340Z,56.8
2018-05-26T07:16:36.417Z,57
2018-05-26T07:17:26.479Z,56.9
2018-05-26T07:18:15.699Z,56.3
2018-05-26T07:19:06.339Z,55
2018-05-26T07:19:56.394Z,53.8
2018-05-26T07:20:46.745Z,53.3
2018-05-26T07:21:36.539Z,53.7
2018-05-26T07:22:26.877Z,54.4
2018-05-26T07:23:16.962Z,55.1
2018-05-26T07:24:06.992Z,55.5
2018-05-26T07:24:57.059Z,55.4
2018-05-26T07:25:47.124Z,55.1
2018-05-26T07:26:36.920Z,54.4
2018-05-26T07:27:26.998Z,53.8
2018-05-26T07:28:17.056Z,53.3
2018-05-26T07:29:07.107Z,53
2018-05-26T07:29:57.445Z,53.1
2018-05-26T07:30:47.528Z,53.5
2018-05-26T07:31:37.577Z,54
2018-05-26T07:32:27.648Z,54.4
2018-05-26T07:33:17.439Z,54.6
2018-05-26T07:34:07.785Z,54.8
2018-05-26T07:34:57.843Z,54.9
2018-05-26T07:35:47.625Z,55
2018-05-26T07:36:37.984Z,55.2
2018-05-26T07:37:28.054Z,55.5
2018-05-26T07:38:18.086Z,55.8
2018-05-26T07:39:07.692Z,56.1
2018-05-26T07:39:58.230Z,56.3
2018-05-26T07:40:48.290Z,56.5
2018-05-26T07:41:38.363Z,56.6
2018-05-26T07:42:28.136Z,56.8
2018-05-26T07:43:17.913Z,57
2018-05-26T07:44:08.057Z,57.1
2018-05-26T07:44:58.616Z,57.3
2018-05-26T07:45:48.662Z,57.4
2018-05-26T07:46:38.163Z,57.6
2018-05-26T07:48:18.576Z,57.9
2018-05-26T07:49:08.936Z,58.1
2018-05-26T07:49:59.014Z,58.2
2018-05-26T07:50:48.787Z,58.3
2018-05-26T07:51:39.133Z,58.5
2018-05-26T07:52:28.906Z,58.7
2018-05-26T07:53:19.265Z,58.8
2018-05-26T07:54:09.331Z,59.1
2018-05-26T07:54:59.379Z,59.2
2018-05-26T07:55:49.456Z,59.4
2018-05-26T07:56:39.530Z,59.6
2018-05-26T07:57:29.579Z,59.8
2018-05-26T07:58:19.410Z,60
2018-05-26T07:59:09.715Z,60.1
2018-05-26T07:59:59.478Z,60.3
2018-05-26T08:00:49.936Z,60.4
2018-05-26T08:01:39.897Z,60.5
2018-05-26T08:02:29.979Z,60.6
2018-05-26T08:03:20.032Z,60.8
2018-05-26T08:04:09.806Z,60.9
2018-05-26T08:05:00.160Z,61.1
2018-05-26T08:05:49.939Z,61.1
2018-05-26T08:06:40.019Z,61.1
2018-05-26T08:07:30.363Z,61.1
2018-05-26T08:08:20.151Z,61.1
2018-05-26T08:09:10.505Z,61.1
2018-05-26T08:10:00.016Z,61.2
2018-05-26T08:10:50.800Z,61.3
2018-05-26T08:11:40.693Z,61.4
2018-05-26T08:12:30.743Z,61.6
2018-05-26T08:13:20.818Z,61.6
2018-05-26T08:14:10.875Z,61.8
2018-05-26T08:15:00.664Z,61.9
2018-05-26T08:15:51.234Z,62
2018-05-26T08:16:41.088Z,62.2
2018-05-26T08:17:30.806Z,62.4
2018-05-26T08:18:20.635Z,62.6
2018-05-26T08:19:11.287Z,62.7
2018-05-26T08:20:01.348Z,62.9
2018-05-26T08:20:51.396Z,63
2018-05-26T08:21:40.899Z,63.1
2018-05-26T08:22:30.958Z,63.3
2018-05-26T08:23:21.621Z,63.4
2018-05-26T08:24:11.687Z,63.5
2018-05-26T08:25:01.712Z,63.7
2018-05-26T08:25:51.568Z,63.8
2018-05-26T08:26:41.847Z,64
2018-05-26T08:27:31.649Z,64.1
2018-05-26T08:28:21.703Z,64.2
2018-05-26T08:29:12.063Z,64.3
2018-05-26T08:30:01.576Z,64.4
2018-05-26T08:30:52.224Z,64.6
2018-05-26T08:31:42.250Z,64.6
2018-05-26T08:32:32.328Z,64.6
2018-05-26T08:33:22.102Z,64.4
2018-05-26T08:34:12.437Z,64.4
2018-05-26T08:35:02.513Z,64.6
2018-05-26T08:35:52.568Z,64.8
2018-05-26T08:36:42.653Z,64.9
2018-05-26T08:37:32.715Z,65.1
2018-05-26T08:38:22.496Z,65.1
2018-05-26T08:39:12.839Z,65
2018-05-26T08:40:02.905Z,64.9
2018-05-26T08:40:52.666Z,64.8
2018-05-26T08:41:42.757Z,64.9
2018-05-26T08:42:32.830Z,64.9
2018-05-26T08:43:23.155Z,65.1
2018-05-26T08:44:12.951Z,65.1
2018-05-26T08:45:03.310Z,65.2
2018-05-26T08:45:53.355Z,65.3
2018-05-26T08:46:43.153Z,65.4
2018-05-26T08:47:33.476Z,65.5
2018-05-26T08:48:23.258Z,65.6
2018-05-26T08:49:13.324Z,65.8
2018-05-26T08:50:03.710Z,65.9
2018-05-26T08:50:53.446Z,66.1
2018-05-26T08:51:43.522Z,66.2
2018-05-26T08:52:33.867Z,66.2
2018-05-26T08:53:23.949Z,65.6
2018-05-26T08:54:14.015Z,64.8
2018-05-26T08:55:04.058Z,63.9
2018-05-26T08:55:54.133Z,63.7
2018-05-26T08:56:44.202Z,64
2018-05-26T08:57:33.977Z,64.3
2018-05-26T08:58:24.055Z,64.5
2018-05-26T08:59:14.402Z,64.9
2018-05-26T09:00:04.479Z,65.1
2018-05-26T09:00:54.569Z,65.1
2018-05-26T09:01:44.584Z,64.4
2018-05-26T09:02:34.369Z,63.6
2018-05-26T09:03:24.437Z,62.8
2018-05-26T09:04:14.792Z,61.9
2018-05-26T09:05:04.581Z,61.3
2018-05-26T09:05:54.346Z,61
2018-05-26T09:06:44.706Z,61.4
2018-05-26T09:07:34.749Z,61.5
2018-05-26T09:08:25.116Z,61.1
2018-05-26T09:09:15.173Z,60.5
2018-05-26T09:10:04.945Z,59.9
2018-05-26T09:10:55.015Z,60
2018-05-26T09:11:45.373Z,60.3
2018-05-26T09:12:35.153Z,61
2018-05-26T09:13:24.931Z,61.9
2018-05-26T09:14:15.297Z,62.3
2018-05-26T09:15:05.621Z,62.4
2018-05-26T09:15:55.705Z,62.3
2018-05-26T09:16:45.752Z,61.8
2018-05-26T09:17:35.817Z,61.6
2018-05-26T09:18:25.900Z,62.1
2018-05-26T09:19:15.966Z,62.3
2018-05-26T09:20:06.002Z,62.1
2018-05-26T09:20:55.816Z,61.6
2018-05-26T09:21:45.912Z,60.9
2018-05-26T09:22:35.923Z,60.2
2018-05-26T09:23:26.261Z,59.9
2018-05-26T09:24:16.345Z,60.5
2018-05-26T09:25:06.400Z,61.1
2018-05-26T09:25:56.182Z,61.1
2018-05-26T09:26:46.260Z,60.9
2018-05-26T09:27:36.335Z,61.1
2018-05-26T09:28:26.390Z,61.6
2018-05-26T09:29:16.723Z,62.1
2018-05-26T09:30:06.520Z,62.3
2018-05-26T09:30:56.855Z,62.3
2018-05-26T09:31:46.644Z,62.1
2018-05-26T09:32:36.984Z,62.1
2018-05-26T09:33:27.090Z,61.8
2018-05-26T09:34:17.141Z,62.1
2018-05-26T09:35:07.192Z,62.6
2018-05-26T09:35:57.255Z,63.1
2018-05-26T09:36:47.330Z,63.6
2018-05-26T09:37:37.129Z,63.9
2018-05-26T09:38:27.444Z,64.1
2018-05-26T09:39:17.549Z,64.2
2018-05-26T09:40:07.442Z,64.3
2018-05-26T09:40:57.664Z,64.6
2018-05-26T09:41:47.436Z,64.9
2018-05-26T09:42:37.773Z,65.2
2018-05-26T09:43:27.559Z,65.5
2018-05-26T09:44:17.953Z,65.8
2018-05-26T09:45:07.966Z,66.1
2018-05-26T09:45:57.479Z,66.3
2018-05-26T09:46:48.108Z,66.4
2018-05-26T09:47:38.187Z,66.7
2018-05-26T09:48:28.228Z,66.9
2018-05-26T09:49:18.295Z,67
2018-05-26T09:50:08.358Z,67.1
2018-05-26T09:50:58.418Z,67.3
2018-05-26T09:51:48.476Z,67.4
2018-05-26T09:52:38.543Z,67.5
2018-05-26T09:53:28.341Z,67.7
2018-05-26T09:54:18.404Z,67.8
2018-05-26T09:55:08.753Z,67.9
2018-05-26T09:55:59.050Z,67.9
2018-05-26T09:56:48.882Z,67.9
2018-05-26T09:57:38.675Z,67.9
2018-05-26T09:58:29.006Z,68
2018-05-26T09:59:18.819Z,68.1
2018-05-26T10:00:08.568Z,68.2
2018-05-26T10:00:59.211Z,68.3
2018-05-26T10:01:49.298Z,68.2
2018-05-26T10:02:39.346Z,67.8
2018-05-26T10:03:29.395Z,67.8
2018-05-26T10:04:19.312Z,67.9
2018-05-26T10:05:09.548Z,67.6
2018-05-26T10:05:59.330Z,67.3
2018-05-26T10:06:49.673Z,66.8
2018-05-26T10:07:39.457Z,65.9
2018-05-26T10:08:29.805Z,65.4
2018-05-26T10:09:20.000Z,65.6
2018-05-26T10:10:09.930Z,65.6
2018-05-26T10:10:59.994Z,65.3
2018-05-26T10:11:50.073Z,64.7
2018-05-26T10:12:40.119Z,64.1
2018-05-26T10:13:30.398Z,63.9
2018-05-26T10:14:20.257Z,64.1
2018-05-26T10:15:10.337Z,64.3
2018-05-26T10:16:00.387Z,64.4
2018-05-26T10:16:50.182Z,64.9
2018-05-26T10:17:40.232Z,65.3
2018-05-26T10:18:30.007Z,65.5
2018-05-26T10:19:20.365Z,65.4
2018-05-26T10:20:10.432Z,65.4
2018-05-26T10:21:00.769Z,65.7
2018-05-26T10:21:50.854Z,66
2018-05-26T10:22:40.626Z,66.4
2018-05-26T10:23:30.686Z,66.6
2018-05-26T10:24:21.075Z,66.4
2018-05-26T10:25:10.519Z,66.1
2018-05-26T10:26:01.161Z,65.4
2018-05-26T10:26:51.277Z,64.7
2018-05-26T10:27:41.283Z,64.8
2018-05-26T10:28:31.416Z,65.4
2018-05-26T10:29:21.405Z,65.6
2018-05-26T10:30:11.475Z,65.1
2018-05-26T10:31:01.553Z,64.4
2018-05-26T10:31:51.593Z,64.4
2018-05-26T10:32:41.684Z,64.7
2018-05-26T10:33:31.764Z,64.9
2018-05-26T10:34:21.820Z,64.5
2018-05-26T10:35:11.881Z,63.8
2018-05-26T10:36:01.690Z,63.4
2018-05-26T10:36:51.725Z,63.6
2018-05-26T10:37:42.080Z,64
2018-05-26T10:38:32.129Z,63.9
2018-05-26T10:39:22.199Z,63.3
2018-05-26T10:40:11.982Z,62.5
2018-05-26T10:41:02.323Z,61.6
2018-05-26T10:47:42.900Z,85
2018-05-26T10:48:32.911Z,63.5
2018-05-26T10:49:23.001Z,62.3
2018-05-26T10:50:13.042Z,61.8
2018-05-26T10:51:02.849Z,62
2018-05-26T10:51:52.923Z,62.9
2018-05-26T10:52:42.996Z,63.9
2018-05-26T10:53:33.316Z,64.8
2018-05-26T10:54:23.381Z,64.6
2018-05-26T10:55:13.431Z,64.1
2018-05-26T10:56:03.499Z,63.7
2018-05-26T10:56:53.576Z,63.8
2018-05-26T10:57:43.352Z,64.3
2018-05-26T10:58:33.424Z,64.9
2018-05-26T10:59:23.764Z,65.5
2018-05-26T11:00:13.826Z,65.4
2018-05-26T11:01:03.903Z,64.6
2018-05-26T11:01:53.960Z,63.8
2018-05-26T11:19:24.950Z,85
2018-05-26T11:20:15.618Z,85
2018-05-26T11:21:05.189Z,64.6
2018-05-26T11:21:55.271Z,63.3
2018-05-26T11:26:55.634Z,64.8
2018-05-26T11:27:46.005Z,64.6
2018-05-26T11:28:36.054Z,64.3
2018-05-26T11:29:26.130Z,64.1
2018-05-26T11:30:15.912Z,64.2
2018-05-26T11:31:05.833Z,64.5
2018-05-26T11:31:56.044Z,64.8
2018-05-26T11:32:46.380Z,64.9
2018-05-26T11:33:36.450Z,65
2018-05-26T11:34:26.529Z,64.9
2018-05-26T11:35:16.586Z,64.8
2018-05-26T11:36:06.367Z,64.8
2018-05-26T11:36:56.720Z,64.8
2018-05-26T11:37:46.496Z,64.9
2018-05-26T11:38:36.567Z,65
2018-05-26T11:39:26.699Z,65.1
2018-05-26T11:40:16.744Z,65
2018-05-26T11:41:07.042Z,64.9
2018-05-26T11:41:56.526Z,64.9
2018-05-26T11:42:46.901Z,64.8
2018-05-26T11:43:37.049Z,64.8
2018-05-26T11:44:27.313Z,64.8
2018-05-26T11:45:17.075Z,64.8
2018-05-26T11:46:07.431Z,64.8
2018-05-26T11:46:57.501Z,64.8
2018-05-26T11:47:47.351Z,64.9
2018-05-26T11:48:37.623Z,64.9
2018-05-26T11:49:26.835Z,64.9
2018-05-26T11:50:17.515Z,65
2018-05-26T11:51:07.850Z,65.1
2018-05-26T11:51:57.605Z,65.3
2018-05-26T11:52:47.958Z,65.3
2018-05-26T11:53:38.020Z,65.3
2018-05-26T11:54:28.080Z,65.3
2018-05-26T11:55:18.144Z,65.4
2018-05-26T11:56:07.936Z,65.3
2018-05-26T11:56:57.996Z,65.3
2018-05-26T11:57:48.054Z,65.3
2018-05-26T11:58:38.399Z,65.3
2018-05-26T11:59:28.210Z,65.2
2018-05-26T12:00:18.535Z,65.2
2018-05-26T12:01:08.627Z,65.2
2018-05-26T12:01:58.776Z,65.2
2018-05-26T12:02:48.755Z,65.2
2018-05-26T12:03:38.789Z,65.1
2018-05-26T12:04:28.881Z,65.1
2018-05-26T12:05:18.920Z,65
2018-05-26T12:06:09.021Z,65
2018-05-26T12:06:59.058Z,64.9
2018-05-26T12:07:49.124Z,64.8
2018-05-26T12:08:39.194Z,64.8
2018-05-26T12:09:29.271Z,64.7
2018-05-26T12:10:19.325Z,64.7
2018-05-26T12:11:09.666Z,64.6
2018-05-26T12:11:59.457Z,64.5
2018-05-26T12:12:49.523Z,64.3
2018-05-26T12:13:39.600Z,64.2
2018-05-26T12:14:29.660Z,64.1
2018-05-26T12:15:19.713Z,64
2018-05-26T12:16:09.489Z,63.9
2018-05-26T12:16:59.840Z,63.8
2018-05-26T12:17:49.911Z,63.6
2018-05-26T12:18:39.991Z,63.6
2018-05-26T12:19:30.054Z,63.7
2018-05-26T12:20:20.118Z,63.8
2018-05-26T12:21:10.177Z,63.8
2018-05-26T12:22:00.247Z,63.8
2018-05-26T12:22:50.296Z,63.8
2018-05-26T12:23:40.093Z,63.8
2018-05-26T12:24:30.472Z,63.6
2018-05-26T12:25:20.580Z,63.6
2018-05-26T12:26:10.313Z,63.5
2018-05-26T12:27:00.790Z,63.4
2018-05-26T12:27:50.693Z,63.4
2018-05-26T12:28:40.508Z,63.4
2018-05-26T12:29:30.848Z,63.4
2018-05-26T12:30:20.896Z,63.4
2018-05-26T12:31:10.692Z,63.4
2018-05-26T12:32:01.024Z,63.3
2018-05-26T12:32:51.114Z,63.1
2018-05-26T12:33:41.185Z,62.6
2018-05-26T12:34:31.226Z,61.9
2018-05-26T12:47:02.232Z,85
2018-05-26T12:47:52.299Z,64.2
2018-05-26T13:22:55.041Z,85
2018-05-26T13:23:44.822Z,57.3
